Terminal Aerodrome Forecast
Issued by NWS Jackson, KY

Current Version | Previous Version | Text Only | Print | Product List | Glossary On
Versions: 1 2 3 4 5 6 7 8 9 10 11 12 13 14 15 16 17 18 19 20 21 22 23 24 25 26 27 28 29
000
FTUS43 KJKL 051739
TAFJKL
TAF
KJKL 051739Z 0518/0618 VRB03KT 6SM -SHRA BR SCT015 OVC050
     FM051900 VRB03KT 5SM -SHRA BR VCTS BKN025CB OVC120
     FM052100 VRB03KT 5SM -SHRA BR VCTS OVC015CB
     FM060400 00000KT 1SM BR BKN003
     FM061500 VRB03KT P6SM OVC015=

USA.gov is the U.S. government's official web portal to all federal, state and local government web resources and services.